Terminal Aerodrome Forecast
Issued by NWS

Home | Current Version | Previous Version | Text Only | Print | Product List | Glossary On
Versions: 1 2 3 4 5 6 7 8 9 10 11 12 13 14 15 16 17 18 19
982
FTUS41 KPBZ 050523
TAFZZV
TAF
KZZV 050523Z 0506/0606 23007KT P6SM OVC006
     FM051200 28005KT P6SM BKN010
     FM051600 30004KT P6SM BKN020
     FM051700 31004KT P6SM BKN035
     FM060200 07003KT P6SM BKN200=

USA.gov is the U.S. government's official web portal to all federal, state and local government web resources and services.